sensor_id;sensor_type;location;lat;lon;timestamp;pressure;altitude;pressure_sealevel;temperature;humidity
11440;BME280;5776;51.814;4.510;2023-02-18T00:01:17;102314.63;;;9.03;100.00
11440;BME280;5776;51.814;4.510;2023-02-18T00:03:44;102312.97;;;9.02;100.00
11440;BME280;5776;51.814;4.510;2023-02-18T00:06:18;102316.50;;;9.02;100.00
11440;BME280;5776;51.814;4.510;2023-02-18T00:08:45;102305.94;;;9.01;100.00
11440;BME280;5776;51.814;4.510;2023-02-18T00:11:11;102308.63;;;9.01;100.00
11440;BME280;5776;51.814;4.510;2023-02-18T00:13:37;102295.09;;;9.01;100.00
11440;BME280;5776;51.814;4.510;2023-02-18T00:16:06;102287.53;;;9.03;100.00
11440;BME280;5776;51.814;4.510;2023-02-18T00:18:33;102291.28;;;9.02;100.00
11440;BME280;5776;51.814;4.510;2023-02-18T00:20:59;102282.94;;;9.03;100.00
11440;BME280;5776;51.814;4.510;2023-02-18T00:23:25;102285.38;;;9.05;100.00
11440;BME280;5776;51.814;4.510;2023-02-18T00:26:16;102280.81;;;9.05;100.00
11440;BME280;5776;51.814;4.510;2023-02-18T00:28:43;102280.81;;;9.05;100.00
11440;BME280;5776;51.814;4.510;2023-02-18T00:31:12;102277.25;;;9.05;100.00
11440;BME280;5776;51.814;4.510;2023-02-18T00:33:39;102270.19;;;9.04;100.00
11440;BME280;5776;51.814;4.510;2023-02-18T00:36:11;102268.31;;;9.04;100.00
11440;BME280;5776;51.814;4.510;2023-02-18T00:38:38;102262.06;;;9.04;100.00
11440;BME280;5776;51.814;4.510;2023-02-18T00:41:04;102256.66;;;9.04;100.00
11440;BME280;5776;51.814;4.510;2023-02-18T00:43:31;102254.75;;;9.04;100.00
11440;BME280;5776;51.814;4.510;2023-02-18T00:45:57;102255.03;;;9.03;100.00
11440;BME280;5776;51.814;4.510;2023-02-18T00:48:23;102267.50;;;9.04;100.00
11440;BME280;5776;51.814;4.510;2023-02-18T00:50:49;102255.56;;;9.05;100.00
11440;BME280;5776;51.814;4.510;2023-02-18T00:53:15;102252.31;;;9.03;100.00
11440;BME280;5776;51.814;4.510;2023-02-18T00:55:42;102260.19;;;9.04;100.00
11440;BME280;5776;51.814;4.510;2023-02-18T00:58:09;102245.81;;;9.04;100.00
11440;BME280;5776;51.814;4.510;2023-02-18T01:00:35;102242.28;;;9.03;100.00
11440;BME280;5776;51.814;4.510;2023-02-18T01:03:01;102234.16;;;9.03;100.00
11440;BME280;5776;51.814;4.510;2023-02-18T01:05:27;102233.06;;;9.04;100.00
11440;BME280;5776;51.814;4.510;2023-02-18T01:07:54;102230.13;;;9.06;100.00
11440;BME280;5776;51.814;4.510;2023-02-18T01:10:20;102235.28;;;9.07;100.00
11440;BME280;5776;51.814;4.510;2023-02-18T01:12:46;102232.84;;;9.06;100.00
11440;BME280;5776;51.814;4.510;2023-02-18T01:15:14;102240.97;;;9.06;100.00
11440;BME280;5776;51.814;4.510;2023-02-18T01:17:41;102239.91;;;9.07;100.00
11440;BME280;5776;51.814;4.510;2023-02-18T01:20:07;102237.44;;;9.05;100.00
11440;BME280;5776;51.814;4.510;2023-02-18T01:22:34;102232.03;;;9.05;100.00
11440;BME280;5776;51.814;4.510;2023-02-18T01:25:00;102226.59;;;9.05;100.00
11440;BME280;5776;51.814;4.510;2023-02-18T01:27:26;102228.47;;;9.05;100.00
11440;BME280;5776;51.814;4.510;2023-02-18T01:29:52;102223.63;;;9.07;100.00
11440;BME280;5776;51.814;4.510;2023-02-18T01:32:18;102232.84;;;9.06;100.00
11440;BME280;5776;51.814;4.510;2023-02-18T01:34:44;102232.03;;;9.05;100.00
11440;BME280;5776;51.814;4.510;2023-02-18T01:37:10;102238.25;;;9.06;100.00
11440;BME280;5776;51.814;4.510;2023-02-18T01:39:36;102229.31;;;9.05;100.00
11440;BME280;5776;51.814;4.510;2023-02-18T01:42:01;102223.06;;;9.05;100.00
11440;BME280;5776;51.814;4.510;2023-02-18T01:44:28;102221.19;;;9.05;100.00
11440;BME280;5776;51.814;4.510;2023-02-18T01:46:54;102222.00;;;9.06;100.00
11440;BME280;5776;51.814;4.510;2023-02-18T01:49:32;102199.75;;;9.04;100.00
11440;BME280;5776;51.814;4.510;2023-02-18T01:52:04;102200.31;;;9.06;100.00
11440;BME280;5776;51.814;4.510;2023-02-18T01:54:44;102194.09;;;9.05;100.00
11440;BME280;5776;51.814;4.510;2023-02-18T01:57:15;102195.94;;;9.05;100.00
11440;BME280;5776;51.814;4.510;2023-02-18T01:59:45;102191.38;;;9.05;100.00
11440;BME280;5776;51.814;4.510;2023-02-18T02:02:14;102182.41;;;9.05;100.00
11440;BME280;5776;51.814;4.510;2023-02-18T02:04:41;102183.25;;;9.05;100.00
11440;BME280;5776;51.814;4.510;2023-02-18T02:07:08;102180.28;;;9.07;100.00
11440;BME280;5776;51.814;4.510;2023-02-18T02:09:34;102166.72;;;9.07;100.00
11440;BME280;5776;51.814;4.510;2023-02-18T02:18:23;102174.03;;;9.06;100.00
11440;BME280;5776;51.814;4.510;2023-02-18T02:24:02;102164.00;;;9.07;100.00
11440;BME280;5776;51.814;4.510;2023-02-18T02:37:51;102145.63;;;9.09;100.00
11440;BME280;5776;51.814;4.510;2023-02-18T02:43:20;102132.06;;;9.09;100.00
11440;BME280;5776;51.814;4.510;2023-02-18T02:45:58;102134.78;;;9.09;100.00
11440;BME280;5776;51.814;4.510;2023-02-18T02:48:44;102110.16;;;9.11;100.00
11440;BME280;5776;51.814;4.510;2023-02-18T02:51:30;102100.13;;;9.11;100.00
11440;BME280;5776;51.814;4.510;2023-02-18T02:54:17;102093.63;;;9.12;100.00
11440;BME280;5776;51.814;4.510;2023-02-18T02:56:43;102085.50;;;9.12;100.00
11440;BME280;5776;51.814;4.510;2023-02-18T02:59:13;102087.38;;;9.12;100.00
11440;BME280;5776;51.814;4.510;2023-02-18T03:10:09;102080.66;;;9.14;100.00
11440;BME280;5776;51.814;4.510;2023-02-18T03:18:02;102077.72;;;9.16;100.00
11440;BME280;5776;51.814;4.510;2023-02-18T03:20:34;102073.34;;;9.15;100.00
11440;BME280;5776;51.814;4.510;2023-02-18T03:23:04;102069.81;;;9.14;100.00
11440;BME280;5776;51.814;4.510;2023-02-18T03:25:32;102066.28;;;9.14;100.00
11440;BME280;5776;51.814;4.510;2023-02-18T03:28:12;102058.16;;;9.14;100.00
11440;BME280;5776;51.814;4.510;2023-02-18T03:33:11;102056.50;;;9.13;100.00
11440;BME280;5776;51.814;4.510;2023-02-18T03:35:41;102045.91;;;9.11;100.00
11440;BME280;5776;51.814;4.510;2023-02-18T03:38:24;102043.78;;;9.13;100.00
11440;BME280;5776;51.814;4.510;2023-02-18T03:40:54;102039.19;;;9.14;100.00
11440;BME280;5776;51.814;4.510;2023-02-18T03:43:20;102033.19;;;9.12;100.00
11440;BME280;5776;51.814;4.510;2023-02-18T03:45:46;102035.91;;;9.12;100.00
11440;BME280;5776;51.814;4.510;2023-02-18T03:48:12;102035.09;;;9.11;100.00
11440;BME280;5776;51.814;4.510;2023-02-18T03:50:38;102027.19;;;9.09;100.00
11440;BME280;5776;51.814;4.510;2023-02-18T03:53:04;102026.13;;;9.11;100.00
11440;BME280;5776;51.814;4.510;2023-02-18T03:55:30;102024.25;;;9.11;100.00
11440;BME280;5776;51.814;4.510;2023-02-18T03:57:56;102019.63;;;9.12;100.00
11440;BME280;5776;51.814;4.510;2023-02-18T04:00:21;102007.16;;;9.11;100.00
11440;BME280;5776;51.814;4.510;2023-02-18T04:02:47;102001.75;;;9.11;100.00
11440;BME280;5776;51.814;4.510;2023-02-18T04:05:13;101997.13;;;9.11;100.00
11440;BME280;5776;51.814;4.510;2023-02-18T04:07:39;101989.00;;;9.11;100.00
11440;BME280;5776;51.814;4.510;2023-02-18T04:10:05;101989.59;;;9.13;100.00
11440;BME280;5776;51.814;4.510;2023-02-18T04:12:33;101998.75;;;9.12;100.00
11440;BME280;5776;51.814;4.510;2023-02-18T04:14:59;101998.19;;;9.10;100.00
11440;BME280;5776;51.814;4.510;2023-02-18T04:17:24;101998.47;;;9.08;100.00
11440;BME280;5776;51.814;4.510;2023-02-18T04:19:50;101997.38;;;9.09;100.00
11440;BME280;5776;51.814;4.510;2023-02-18T04:22:16;102003.88;;;9.08;100.00
11440;BME280;5776;51.814;4.510;2023-02-18T04:24:42;102008.47;;;9.08;100.00
11440;BME280;5776;51.814;4.510;2023-02-18T04:27:08;102007.63;;;9.07;100.00
11440;BME280;5776;51.814;4.510;2023-02-18T04:29:34;101997.06;;;9.06;100.00
11440;BME280;5776;51.814;4.510;2023-02-18T04:32:00;102012.25;;;9.07;100.00
11440;BME280;5776;51.814;4.510;2023-02-18T04:34:26;102000.81;;;9.05;100.00
11440;BME280;5776;51.814;4.510;2023-02-18T04:36:52;102004.13;;;9.07;100.00
11440;BME280;5776;51.814;4.510;2023-02-18T04:39:17;101997.31;;;9.04;100.00
11440;BME280;5776;51.814;4.510;2023-02-18T04:41:43;101990.84;;;9.05;100.00
11440;BME280;5776;51.814;4.510;2023-02-18T04:44:09;102000.81;;;9.05;100.00
11440;BME280;5776;51.814;4.510;2023-02-18T04:46:35;101986.47;;;9.04;100.00
11440;BME280;5776;51.814;4.510;2023-02-18T04:49:01;101990.00;;;9.05;100.00
11440;BME280;5776;51.814;4.510;2023-02-18T04:51:27;101997.31;;;9.04;100.00
11440;BME280;5776;51.814;4.510;2023-02-18T04:53:53;101981.84;;;9.05;100.00
11440;BME280;5776;51.814;4.510;2023-02-18T04:56:19;101974.81;;;9.04;100.00
11440;BME280;5776;51.814;4.510;2023-02-18T04:58:45;101969.97;;;9.06;100.00
11440;BME280;5776;51.814;4.510;2023-02-18T05:01:11;101964.78;;;9.04;100.00
11440;BME280;5776;51.814;4.510;2023-02-18T05:03:37;101966.69;;;9.04;100.00
11440;BME280;5776;51.814;4.510;2023-02-18T05:06:03;101966.69;;;9.04;100.00
11440;BME280;5776;51.814;4.510;2023-02-18T05:08:30;101961.25;;;9.04;100.00
11440;BME280;5776;51.814;4.510;2023-02-18T05:10:56;101964.78;;;9.04;100.00
11440;BME280;5776;51.814;4.510;2023-02-18T05:13:22;101964.78;;;9.04;100.00
11440;BME280;5776;51.814;4.510;2023-02-18T05:15:48;101963.97;;;9.04;100.00
11440;BME280;5776;51.814;4.510;2023-02-18T05:18:13;101962.06;;;9.04;100.00
11440;BME280;5776;51.814;4.510;2023-02-18T05:20:39;101951.50;;;9.03;100.00
11440;BME280;5776;51.814;4.510;2023-02-18T05:23:05;101951.50;;;9.03;100.00
11440;BME280;5776;51.814;4.510;2023-02-18T05:25:31;101954.22;;;9.03;100.00
11440;BME280;5776;51.814;4.510;2023-02-18T05:27:57;101944.19;;;9.03;100.00
11440;BME280;5776;51.814;4.510;2023-02-18T05:30:23;101931.44;;;9.04;100.00
11440;BME280;5776;51.814;4.510;2023-02-18T05:32:49;101926.03;;;9.04;100.00
11440;BME280;5776;51.814;4.510;2023-02-18T05:35:15;101931.44;;;9.04;100.00
11440;BME280;5776;51.814;4.510;2023-02-18T05:37:41;101924.13;;;9.04;100.00
11440;BME280;5776;51.814;4.510;2023-02-18T05:40:07;101929.56;;;9.04;100.00
11440;BME280;5776;51.814;4.510;2023-02-18T05:42:33;101917.91;;;9.04;100.00
11440;BME280;5776;51.814;4.510;2023-02-18T05:44:59;101919.53;;;9.05;100.00
11440;BME280;5776;51.814;4.510;2023-02-18T05:47:25;101922.25;;;9.05;100.00
11440;BME280;5776;51.814;4.510;2023-02-18T05:49:51;101922.25;;;9.05;100.00
11440;BME280;5776;51.814;4.510;2023-02-18T05:52:17;101916.00;;;9.04;100.00
11440;BME280;5776;51.814;4.510;2023-02-18T05:54:43;101914.09;;;9.05;100.00
11440;BME280;5776;51.814;4.510;2023-02-18T05:57:09;101920.63;;;9.04;100.00
11440;BME280;5776;51.814;4.510;2023-02-18T05:59:35;101916.81;;;9.05;100.00
11440;BME280;5776;51.814;4.510;2023-02-18T06:02:01;101926.03;;;9.04;100.00
11440;BME280;5776;51.814;4.510;2023-02-18T06:04:27;101913.56;;;9.03;100.00
11440;BME280;5776;51.814;4.510;2023-02-18T06:06:53;101917.09;;;9.03;100.00
11440;BME280;5776;51.814;4.510;2023-02-18T06:09:19;101919.81;;;9.03;100.00
11440;BME280;5776;51.814;4.510;2023-02-18T06:11:45;101919.00;;;9.03;100.00
11440;BME280;5776;51.814;4.510;2023-02-18T06:14:11;101927.13;;;9.03;100.00
11440;BME280;5776;51.814;4.510;2023-02-18T06:16:37;101921.69;;;9.03;100.00
11440;BME280;5776;51.814;4.510;2023-02-18T06:19:03;101920.03;;;9.02;100.00
11440;BME280;5776;51.814;4.510;2023-02-18T06:21:29;101917.09;;;9.03;100.00
11440;BME280;5776;51.814;4.510;2023-02-18T06:23:55;101919.81;;;9.03;100.00
11440;BME280;5776;51.814;4.510;2023-02-18T06:26:21;101919.22;;;9.01;100.00
11440;BME280;5776;51.814;4.510;2023-02-18T06:28:47;101937.38;;;9.01;100.00
11440;BME280;5776;51.814;4.510;2023-02-18T06:31:13;101936.88;;;9.04;100.00
11440;BME280;5776;51.814;4.510;2023-02-18T06:33:40;101939.81;;;9.02;100.00
11440;BME280;5776;51.814;4.510;2023-02-18T06:36:06;101935.25;;;9.03;100.00
11440;BME280;5776;51.814;4.510;2023-02-18T06:38:34;101922.75;;;9.02;100.00
11440;BME280;5776;51.814;4.510;2023-02-18T06:41:00;101931.97;;;9.01;100.00
11440;BME280;5776;51.814;4.510;2023-02-18T06:43:26;101926.53;;;9.01;100.00
11440;BME280;5776;51.814;4.510;2023-02-18T06:45:52;101930.31;;;9.00;100.00
11440;BME280;5776;51.814;4.510;2023-02-18T06:48:19;101922.16;;;9.00;100.00
11440;BME280;5776;51.814;4.510;2023-02-18T06:50:45;101918.66;;;8.99;100.00
11440;BME280;5776;51.814;4.510;2023-02-18T06:53:11;101922.16;;;9.00;100.00
11440;BME280;5776;51.814;4.510;2023-02-18T06:55:37;101914.88;;;9.00;100.00
11440;BME280;5776;51.814;4.510;2023-02-18T06:58:03;101913.22;;;8.99;100.00
11440;BME280;5776;51.814;4.510;2023-02-18T07:00:30;101910.75;;;8.98;100.00
11440;BME280;5776;51.814;4.510;2023-02-18T07:02:56;101913.47;;;8.98;100.00
11440;BME280;5776;51.814;4.510;2023-02-18T07:05:22;101913.75;;;8.96;100.00
11440;BME280;5776;51.814;4.510;2023-02-18T07:07:48;101909.13;;;8.97;100.00
11440;BME280;5776;51.814;4.510;2023-02-18T07:10:14;101907.50;;;8.96;100.00
11440;BME280;5776;51.814;4.510;2023-02-18T07:12:39;101910.22;;;8.96;100.00
11440;BME280;5776;51.814;4.510;2023-02-18T07:15:05;101919.16;;;8.96;100.00
11440;BME280;5776;51.814;4.510;2023-02-18T07:17:31;101909.38;;;8.95;100.00
11440;BME280;5776;51.814;4.510;2023-02-18T07:19:56;101916.69;;;8.95;100.00
11440;BME280;5776;51.814;4.510;2023-02-18T07:22:22;101916.97;;;8.93;100.00
11440;BME280;5776;51.814;4.510;2023-02-18T07:24:52;101900.44;;;8.95;100.00
11440;BME280;5776;51.814;4.510;2023-02-18T07:27:19;101915.63;;;8.96;100.00
11440;BME280;5776;51.814;4.510;2023-02-18T07:29:45;101911.78;;;8.92;100.00
11440;BME280;5776;51.814;4.510;2023-02-18T07:32:12;101911.28;;;8.95;100.00
11440;BME280;5776;51.814;4.510;2023-02-18T07:34:39;101912.94;;;8.96;100.00
11440;BME280;5776;51.814;4.510;2023-02-18T07:37:04;101919.97;;;8.97;100.00
11440;BME280;5776;51.814;4.510;2023-02-18T07:39:35;101920.47;;;8.94;100.00
11440;BME280;5776;51.814;4.510;2023-02-18T07:42:02;101907.16;;;8.92;100.00
11440;BME280;5776;51.814;4.510;2023-02-18T07:44:28;101909.66;;;8.94;100.00
11440;BME280;5776;51.814;4.510;2023-02-18T07:46:55;101905.28;;;8.93;100.00
11440;BME280;5776;51.814;4.510;2023-02-18T07:49:21;101915.06;;;8.94;100.00
11440;BME280;5776;51.814;4.510;2023-02-18T07:51:48;101902.31;;;8.94;100.00
11440;BME280;5776;51.814;4.510;2023-02-18T07:54:14;101910.69;;;8.93;100.00
11440;BME280;5776;51.814;4.510;2023-02-18T07:56:41;101902.56;;;8.93;100.00
11440;BME280;5776;51.814;4.510;2023-02-18T07:59:08;101905.84;;;8.95;100.00
11440;BME280;5776;51.814;4.510;2023-02-18T08:01:34;101911.53;;;8.93;100.00
11440;BME280;5776;51.814;4.510;2023-02-18T08:03:59;101913.41;;;8.93;100.00
11440;BME280;5776;51.814;4.510;2023-02-18T08:06:33;101902.56;;;8.93;100.00
11440;BME280;5776;51.814;4.510;2023-02-18T08:08:59;101905.84;;;8.95;100.00
11440;BME280;5776;51.814;4.510;2023-02-18T08:11:25;101895.00;;;8.95;100.00
11440;BME280;5776;51.814;4.510;2023-02-18T08:13:51;101898.28;;;8.97;100.00
11440;BME280;5776;51.814;4.510;2023-02-18T08:16:18;101902.91;;;8.96;100.00
11440;BME280;5776;51.814;4.510;2023-02-18T08:18:45;101902.31;;;8.94;100.00
11440;BME280;5776;51.814;4.510;2023-02-18T08:21:13;101915.38;;;8.97;100.00
11440;BME280;5776;51.814;4.510;2023-02-18T08:23:39;101910.75;;;8.98;100.00
11440;BME280;5776;51.814;4.510;2023-02-18T08:26:05;101909.94;;;8.97;100.00
11440;BME280;5776;51.814;4.510;2023-02-18T08:28:31;101919.97;;;8.97;100.00
11440;BME280;5776;51.814;4.510;2023-02-18T08:30:57;101909.13;;;8.97;100.00
11440;BME280;5776;51.814;4.510;2023-02-18T08:33:23;101918.34;;;8.96;100.00
11440;BME280;5776;51.814;4.510;2023-02-18T08:35:51;101919.16;;;8.96;100.00
11440;BME280;5776;51.814;4.510;2023-02-18T08:38:18;101922.09;;;8.95;100.00
11440;BME280;5776;51.814;4.510;2023-02-18T08:40:45;101930.81;;;8.97;100.00
11440;BME280;5776;51.814;4.510;2023-02-18T08:43:11;101928.91;;;8.97;100.00
11440;BME280;5776;51.814;4.510;2023-02-18T08:45:38;101928.91;;;8.97;100.00
11440;BME280;5776;51.814;4.510;2023-02-18T08:48:06;101927.03;;;8.98;100.00
11440;BME280;5776;51.814;4.510;2023-02-18T08:50:33;101936.00;;;8.98;100.00
11440;BME280;5776;51.814;4.510;2023-02-18T08:52:59;101937.84;;;8.98;100.00
11440;BME280;5776;51.814;4.510;2023-02-18T08:55:32;101945.16;;;8.97;100.00
11440;BME280;5776;51.814;4.510;2023-02-18T08:57:59;101943.28;;;8.98;100.00
11440;BME280;5776;51.814;4.510;2023-02-18T09:00:26;101941.66;;;8.97;100.00
11440;BME280;5776;51.814;4.510;2023-02-18T09:02:52;101944.94;;;8.99;100.00
11440;BME280;5776;51.814;4.510;2023-02-18T09:05:18;101947.41;;;9.00;100.00
11440;BME280;5776;51.814;4.510;2023-02-18T09:07:45;101940.56;;;8.98;100.00
11440;BME280;5776;51.814;4.510;2023-02-18T09:10:11;101943.28;;;8.98;100.00
11440;BME280;5776;51.814;4.510;2023-02-18T09:12:37;101944.94;;;8.99;100.00
11440;BME280;5776;51.814;4.510;2023-02-18T09:15:03;101944.13;;;8.98;100.00
11440;BME280;5776;51.814;4.510;2023-02-18T09:17:30;101952.81;;;9.00;100.00
11440;BME280;5776;51.814;4.510;2023-02-18T09:19:56;101959.06;;;9.01;100.00
11440;BME280;5776;51.814;4.510;2023-02-18T09:22:22;101955.53;;;9.00;100.00
11440;BME280;5776;51.814;4.510;2023-02-18T09:24:47;101957.41;;;9.00;100.00
11440;BME280;5776;51.814;4.510;2023-02-18T09:27:13;101962.81;;;9.00;100.00
11440;BME280;5776;51.814;4.510;2023-02-18T09:29:40;101955.78;;;8.99;100.00
11440;BME280;5776;51.814;4.510;2023-02-18T09:32:06;101967.19;;;9.01;100.00
11440;BME280;5776;51.814;4.510;2023-02-18T09:34:34;101967.19;;;9.01;100.00
11440;BME280;5776;51.814;4.510;2023-02-18T09:37:00;101963.41;;;9.02;100.00
11440;BME280;5776;51.814;4.510;2023-02-18T09:39:26;101972.34;;;9.02;100.00
11440;BME280;5776;51.814;4.510;2023-02-18T09:42:04;101972.59;;;9.01;100.00
11440;BME280;5776;51.814;4.510;2023-02-18T09:44:46;101979.94;;;9.00;100.00
11440;BME280;5776;51.814;4.510;2023-02-18T09:47:17;101976.94;;;9.02;100.00
11440;BME280;5776;51.814;4.510;2023-02-18T09:49:49;101967.75;;;9.03;100.00
11440;BME280;5776;51.814;4.510;2023-02-18T09:52:27;101974.00;;;9.03;100.00
11440;BME280;5776;51.814;4.510;2023-02-18T09:54:55;101975.63;;;9.04;100.00
11440;BME280;5776;51.814;4.510;2023-02-18T09:57:43;101975.63;;;9.04;100.00
11440;BME280;5776;51.814;4.510;2023-02-18T10:00:14;101987.28;;;9.05;100.00
11440;BME280;5776;51.814;4.510;2023-02-18T10:02:54;101981.84;;;9.05;100.00
11440;BME280;5776;51.814;4.510;2023-02-18T10:05:22;101980.81;;;9.06;100.00
11440;BME280;5776;51.814;4.510;2023-02-18T10:07:53;101989.50;;;9.08;100.00
11440;BME280;5776;51.814;4.510;2023-02-18T10:10:43;101987.84;;;9.07;100.00
11440;BME280;5776;51.814;4.510;2023-02-18T10:13:15;101991.38;;;9.07;100.00
11440;BME280;5776;51.814;4.510;2023-02-18T10:15:42;101994.94;;;9.08;100.00
11440;BME280;5776;51.814;4.510;2023-02-18T10:18:29;101993.84;;;9.09;100.00
11440;BME280;5776;51.814;4.510;2023-02-18T10:21:17;101993.84;;;9.09;100.00
11440;BME280;5776;51.814;4.510;2023-02-18T10:23:58;101987.63;;;9.08;100.00
11440;BME280;5776;51.814;4.510;2023-02-18T10:26:26;102005.28;;;9.11;100.00
11440;BME280;5776;51.814;4.510;2023-02-18T10:29:13;102010.13;;;9.09;100.00
11440;BME280;5776;51.814;4.510;2023-02-18T10:31:43;102018.00;;;9.11;100.00
11440;BME280;5776;51.814;4.510;2023-02-18T10:36:52;102003.59;;;9.10;100.00
11440;BME280;5776;51.814;4.510;2023-02-18T10:39:44;102016.94;;;9.12;100.00
11440;BME280;5776;51.814;4.510;2023-02-18T10:42:22;102012.31;;;9.12;100.00
11440;BME280;5776;51.814;4.510;2023-02-18T10:45:13;102028.56;;;9.12;100.00
11440;BME280;5776;51.814;4.510;2023-02-18T10:53:10;102031.06;;;9.14;100.00
11440;BME280;5776;51.814;4.510;2023-02-18T10:55:40;102026.44;;;9.14;100.00
11440;BME280;5776;51.814;4.510;2023-02-18T11:00:52;102018.63;;;9.18;100.00
11440;BME280;5776;51.814;4.510;2023-02-18T11:03:23;102033.84;;;9.19;100.00
11440;BME280;5776;51.814;4.510;2023-02-18T11:05:53;102030.53;;;9.17;100.00
11440;BME280;5776;51.814;4.510;2023-02-18T11:08:23;102031.94;;;9.19;100.00
11440;BME280;5776;51.814;4.510;2023-02-18T11:10:50;102017.56;;;9.19;100.00
11440;BME280;5776;51.814;4.510;2023-02-18T11:13:24;102034.66;;;9.19;100.00
11440;BME280;5776;51.814;4.510;2023-02-18T11:16:04;102021.91;;;9.20;100.00
11440;BME280;5776;51.814;4.510;2023-02-18T11:18:42;102012.72;;;9.21;100.00
11440;BME280;5776;51.814;4.510;2023-02-18T11:21:29;102021.41;;;9.23;100.00
11440;BME280;5776;51.814;4.510;2023-02-18T11:23:57;102015.16;;;9.22;100.00
11440;BME280;5776;51.814;4.510;2023-02-18T11:26:32;102024.97;;;9.23;100.00
11440;BME280;5776;51.814;4.510;2023-02-18T11:29:14;102025.53;;;9.25;100.00
11440;BME280;5776;51.814;4.510;2023-02-18T11:31:44;102021.75;;;9.26;100.00
11440;BME280;5776;51.814;4.510;2023-02-18T11:34:19;102030.44;;;9.28;100.00
11440;BME280;5776;51.814;4.510;2023-02-18T11:36:47;102022.31;;;9.28;100.00
11440;BME280;5776;51.814;4.510;2023-02-18T11:39:21;102023.13;;;9.29;100.00
11440;BME280;5776;51.814;4.510;2023-02-18T11:42:00;102015.22;;;9.27;100.00
11440;BME280;5776;51.814;4.510;2023-02-18T11:47:05;102018.00;;;9.33;100.00
11440;BME280;5776;51.814;4.510;2023-02-18T11:49:33;102027.00;;;9.33;100.00
11440;BME280;5776;51.814;4.510;2023-02-18T11:55:02;102019.41;;;9.35;100.00
11440;BME280;5776;51.814;4.510;2023-02-18T11:57:30;102017.53;;;9.36;100.00
11440;BME280;5776;51.814;4.510;2023-02-18T11:59:57;102017.53;;;9.36;100.00
11440;BME280;5776;51.814;4.510;2023-02-18T12:02:32;102016.44;;;9.37;100.00
11440;BME280;5776;51.814;4.510;2023-02-18T12:05:03;102024.81;;;9.35;100.00
11440;BME280;5776;51.814;4.510;2023-02-18T12:07:58;102014.81;;;9.36;100.00
11440;BME280;5776;51.814;4.510;2023-02-18T12:10:48;102009.13;;;9.37;100.00
11440;BME280;5776;51.814;4.510;2023-02-18T12:35:39;102006.25;;;9.44;100.00
11440;BME280;5776;51.814;4.510;2023-02-18T12:54:50;101994.38;;;9.50;100.00
11440;BME280;5776;51.814;4.510;2023-02-18T12:57:35;101994.94;;;9.52;100.00
11440;BME280;5776;51.814;4.510;2023-02-18T13:14:01;102015.38;;;9.60;100.00
11440;BME280;5776;51.814;4.510;2023-02-18T13:16:30;102001.00;;;9.59;100.00
11440;BME280;5776;51.814;4.510;2023-02-18T13:21:46;102007.00;;;9.61;100.00
11440;BME280;5776;51.814;4.510;2023-02-18T13:24:30;102007.81;;;9.62;100.00
11440;BME280;5776;51.814;4.510;2023-02-18T13:27:47;102001.31;;;9.63;100.00
11440;BME280;5776;51.814;4.510;2023-02-18T13:30:15;102011.91;;;9.64;100.00
11440;BME280;5776;51.814;4.510;2023-02-18T13:32:59;102006.50;;;9.64;100.00
11440;BME280;5776;51.814;4.510;2023-02-18T13:35:35;102008.13;;;9.65;100.00
11440;BME280;5776;51.814;4.510;2023-02-18T13:40:46;102011.41;;;9.67;100.00
11440;BME280;5776;51.814;4.510;2023-02-18T13:46:08;102003.84;;;9.69;100.00
11440;BME280;5776;51.814;4.510;2023-02-18T13:48:43;102006.56;;;9.69;100.00
11440;BME280;5776;51.814;4.510;2023-02-18T13:51:15;102014.44;;;9.71;100.00
11440;BME280;5776;51.814;4.510;2023-02-18T13:53:48;102008.19;;;9.70;100.00
11440;BME280;5776;51.814;4.510;2023-02-18T13:58:49;102007.69;;;9.73;100.00
11440;BME280;5776;51.814;4.510;2023-02-18T14:01:24;102005.78;;;9.74;100.00
11440;BME280;5776;51.814;4.510;2023-02-18T14:03:59;102012.03;;;9.74;100.00
11440;BME280;5776;51.814;4.510;2023-02-18T14:06:34;102010.13;;;9.75;100.00
11440;BME280;5776;51.814;4.510;2023-02-18T14:12:25;102012.03;;;9.74;100.00
11440;BME280;5776;51.814;4.510;2023-02-18T14:17:22;102022.38;;;9.78;100.00
11440;BME280;5776;51.814;4.510;2023-02-18T14:22:45;102003.13;;;9.79;100.00
11440;BME280;5776;51.814;4.510;2023-02-18T14:31:01;102018.66;;;9.84;100.00
11440;BME280;5776;51.814;4.510;2023-02-18T14:33:31;102009.44;;;9.85;100.00
11440;BME280;5776;51.814;4.510;2023-02-18T14:39:06;102015.13;;;9.83;100.00
11440;BME280;5776;51.814;4.510;2023-02-18T14:47:01;102017.56;;;9.85;100.00
11440;BME280;5776;51.814;4.510;2023-02-18T14:49:36;102010.53;;;9.84;100.00
11440;BME280;5776;51.814;4.510;2023-02-18T14:52:08;102013.22;;;9.84;100.00
11440;BME280;5776;51.814;4.510;2023-02-18T14:54:37;102002.09;;;9.85;100.00
11440;BME280;5776;51.814;4.510;2023-02-18T14:57:08;102012.16;;;9.85;100.00
11440;BME280;5776;51.814;4.510;2023-02-18T14:59:40;102014.84;;;9.85;100.00
11440;BME280;5776;51.814;4.510;2023-02-18T15:02:24;102020.03;;;9.86;100.00
11440;BME280;5776;51.814;4.510;2023-02-18T15:05:13;102015.69;;;9.85;100.00
11440;BME280;5776;51.814;4.510;2023-02-18T15:07:39;102017.56;;;9.85;100.00
11440;BME280;5776;51.814;4.510;2023-02-18T15:10:12;102018.16;;;9.87;100.00
11440;BME280;5776;51.814;4.510;2023-02-18T15:12:38;102019.22;;;9.86;100.00
11440;BME280;5776;51.814;4.510;2023-02-18T15:15:05;102012.97;;;9.85;100.00
11440;BME280;5776;51.814;4.510;2023-02-18T15:17:31;102015.69;;;9.85;100.00
11440;BME280;5776;51.814;4.510;2023-02-18T15:20:03;102020.03;;;9.86;100.00
11440;BME280;5776;51.814;4.510;2023-02-18T15:22:32;102020.84;;;9.87;100.00
11440;BME280;5776;51.814;4.510;2023-02-18T15:25:00;102020.84;;;9.87;100.00
11440;BME280;5776;51.814;4.510;2023-02-18T15:27:30;102015.44;;;9.87;100.00
11440;BME280;5776;51.814;4.510;2023-02-18T15:32:50;102016.53;;;9.86;100.00
11440;BME280;5776;51.814;4.510;2023-02-18T15:35:18;102014.84;;;9.85;100.00
11440;BME280;5776;51.814;4.510;2023-02-18T15:37:46;102018.38;;;9.85;100.00